sensor_id;sensor_type;location;lat;lon;timestamp;pressure;altitude;pressure_sealevel;temperature;humidity
60019;BME280;45870;42.528;26.740;2023-08-06T00:00:21;98438.19;;;30.65;52.80
60019;BME280;45870;42.528;26.740;2023-08-06T00:02:48;98491.09;;;31.36;52.23
60019;BME280;45870;42.528;26.740;2023-08-06T00:05:13;98489.84;;;31.76;50.72
60019;BME280;45870;42.528;26.740;2023-08-06T00:07:43;98437.38;;;30.65;52.77
60019;BME280;45870;42.528;26.740;2023-08-06T00:10:10;98487.94;;;30.95;53.06
60019;BME280;45870;42.528;26.740;2023-08-06T00:12:35;98490.72;;;30.85;53.23
60019;BME280;45870;42.528;26.740;2023-08-06T00:15:01;98501.88;;;30.95;53.00
60019;BME280;45870;42.528;26.740;2023-08-06T00:17:27;98488.31;;;31.29;52.17
60019;BME280;45870;42.528;26.740;2023-08-06T00:19:53;98497.72;;;32.06;50.32
60019;BME280;45870;42.528;26.740;2023-08-06T00:22:18;98456.38;;;31.76;50.43
60019;BME280;45870;42.528;26.740;2023-08-06T00:24:44;98462.69;;;31.87;49.68
60019;BME280;45870;42.528;26.740;2023-08-06T00:27:10;98474.84;;;31.06;52.49
60019;BME280;45870;42.528;26.740;2023-08-06T00:29:35;98480.34;;;30.43;54.31
60019;BME280;45870;42.528;26.740;2023-08-06T00:32:01;98471.22;;;30.88;52.88
60019;BME280;45870;42.528;26.740;2023-08-06T00:34:27;98472.38;;;31.54;51.06
60019;BME280;45870;42.528;26.740;2023-08-06T00:36:52;98466.06;;;31.11;52.26
60019;BME280;45870;42.528;26.740;2023-08-06T00:39:19;98466.47;;;31.13;51.82
60019;BME280;45870;42.528;26.740;2023-08-06T00:41:44;98469.63;;;30.87;52.56
60019;BME280;45870;42.528;26.740;2023-08-06T00:44:10;98461.25;;;30.91;52.12
60019;BME280;45870;42.528;26.740;2023-08-06T00:46:36;98450.13;;;30.77;52.55
60019;BME280;45870;42.528;26.740;2023-08-06T00:49:02;98444.91;;;30.36;53.67
60019;BME280;45870;42.528;26.740;2023-08-06T00:51:27;98437.00;;;31.05;52.49
60019;BME280;45870;42.528;26.740;2023-08-06T00:53:53;98437.00;;;31.02;51.47
60019;BME280;45870;42.528;26.740;2023-08-06T00:56:20;98405.16;;;30.43;53.43
60019;BME280;45870;42.528;26.740;2023-08-06T00:58:46;98427.00;;;30.41;52.99
60019;BME280;45870;42.528;26.740;2023-08-06T01:01:12;98420.06;;;29.82;55.07
60019;BME280;45870;42.528;26.740;2023-08-06T01:03:37;98424.53;;;29.24;56.68
60019;BME280;45870;42.528;26.740;2023-08-06T01:06:03;98413.34;;;29.14;56.90
60019;BME280;45870;42.528;26.740;2023-08-06T01:08:30;98417.56;;;29.45;55.54
60019;BME280;45870;42.528;26.740;2023-08-06T01:13:46;98411.91;;;30.95;51.16
60019;BME280;45870;42.528;26.740;2023-08-06T01:16:18;98407.50;;;31.22;50.10
60019;BME280;45870;42.528;26.740;2023-08-06T01:18:47;98273.06;;;30.05;51.06
60019;BME280;45870;42.528;26.740;2023-08-06T01:21:15;98407.03;;;31.55;49.48
60019;BME280;45870;42.528;26.740;2023-08-06T01:23:42;98405.84;;;31.39;49.77
60019;BME280;45870;42.528;26.740;2023-08-06T01:31:48;98399.53;;;31.28;49.90
60019;BME280;45870;42.528;26.740;2023-08-06T01:34:24;98391.41;;;31.72;48.17
60019;BME280;45870;42.528;26.740;2023-08-06T01:36:51;98390.25;;;31.66;47.83
60019;BME280;45870;42.528;26.740;2023-08-06T01:39:17;98390.72;;;31.36;49.44
60019;BME280;45870;42.528;26.740;2023-08-06T01:41:53;98337.06;;;30.93;49.16
60019;BME280;45870;42.528;26.740;2023-08-06T01:44:18;98399.16;;;30.83;50.26
60019;BME280;45870;42.528;26.740;2023-08-06T01:46:44;98403.09;;;31.28;49.78
60019;BME280;45870;42.528;26.740;2023-08-06T01:49:10;98397.50;;;31.28;49.16
60019;BME280;45870;42.528;26.740;2023-08-06T01:51:35;98380.00;;;31.35;48.11
60019;BME280;45870;42.528;26.740;2023-08-06T01:54:01;98387.56;;;31.34;47.59
60019;BME280;45870;42.528;26.740;2023-08-06T01:56:26;98383.22;;;31.15;48.11
60019;BME280;45870;42.528;26.740;2023-08-06T01:58:52;98378.88;;;30.58;49.11
60019;BME280;45870;42.528;26.740;2023-08-06T02:01:18;98365.38;;;30.53;49.47
60019;BME280;45870;42.528;26.740;2023-08-06T02:03:43;98372.88;;;30.24;49.54
60019;BME280;45870;42.528;26.740;2023-08-06T02:06:09;98369.75;;;30.47;48.65
60019;BME280;45870;42.528;26.740;2023-08-06T02:08:34;98362.59;;;30.70;47.75
60019;BME280;45870;42.528;26.740;2023-08-06T02:11:00;98364.16;;;30.33;48.15
60019;BME280;45870;42.528;26.740;2023-08-06T02:13:27;98356.56;;;30.33;48.54
60019;BME280;45870;42.528;26.740;2023-08-06T02:15:52;98351.44;;;30.35;48.20
60019;BME280;45870;42.528;26.740;2023-08-06T02:18:18;98360.91;;;29.95;48.83
60019;BME280;45870;42.528;26.740;2023-08-06T02:20:43;98362.34;;;29.50;50.24
60019;BME280;45870;42.528;26.740;2023-08-06T02:23:09;98342.09;;;29.50;49.98
60019;BME280;45870;42.528;26.740;2023-08-06T02:25:35;98339.47;;;30.03;47.75
60019;BME280;45870;42.528;26.740;2023-08-06T02:28:01;98375.69;;;30.28;47.43
60019;BME280;45870;42.528;26.740;2023-08-06T02:30:26;98369.59;;;29.76;48.39
60019;BME280;45870;42.528;26.740;2023-08-06T02:32:52;98375.19;;;29.83;47.51
60019;BME280;45870;42.528;26.740;2023-08-06T02:35:18;98375.16;;;29.72;48.34
60019;BME280;45870;42.528;26.740;2023-08-06T02:37:43;98376.41;;;29.93;48.09
60019;BME280;45870;42.528;26.740;2023-08-06T02:40:09;98387.91;;;29.84;47.90
60019;BME280;45870;42.528;26.740;2023-08-06T02:42:35;98379.84;;;29.54;48.86
60019;BME280;45870;42.528;26.740;2023-08-06T02:45:01;98376.06;;;29.18;49.02
60019;BME280;45870;42.528;26.740;2023-08-06T02:47:26;98373.25;;;29.11;49.40
60019;BME280;45870;42.528;26.740;2023-08-06T02:49:52;98317.25;;;28.99;49.17
60019;BME280;45870;42.528;26.740;2023-08-06T02:52:18;98376.41;;;29.10;49.55
60019;BME280;45870;42.528;26.740;2023-08-06T02:54:43;98383.56;;;29.07;50.27
60019;BME280;45870;42.528;26.740;2023-08-06T02:57:09;98378.03;;;28.12;52.86
60019;BME280;45870;42.528;26.740;2023-08-06T02:59:35;98344.59;;;28.02;54.45
60019;BME280;45870;42.528;26.740;2023-08-06T03:02:00;98343.66;;;28.24;54.78
60019;BME280;45870;42.528;26.740;2023-08-06T03:04:26;98321.22;;;29.01;52.08
60019;BME280;45870;42.528;26.740;2023-08-06T03:06:52;98366.84;;;29.00;54.41
60019;BME280;45870;42.528;26.740;2023-08-06T03:09:18;98348.00;;;29.34;54.56
60019;BME280;45870;42.528;26.740;2023-08-06T03:11:43;98353.66;;;29.55;54.41
60019;BME280;45870;42.528;26.740;2023-08-06T03:14:09;98342.56;;;29.73;54.25
60019;BME280;45870;42.528;26.740;2023-08-06T03:16:35;98352.84;;;28.32;59.78
60019;BME280;45870;42.528;26.740;2023-08-06T03:19:01;98352.69;;;28.65;58.83
60019;BME280;45870;42.528;26.740;2023-08-06T03:21:27;98350.69;;;28.11;61.23
60019;BME280;45870;42.528;26.740;2023-08-06T03:23:52;98341.03;;;28.42;60.59
60019;BME280;45870;42.528;26.740;2023-08-06T03:26:18;98335.41;;;28.89;59.18
60019;BME280;45870;42.528;26.740;2023-08-06T03:28:43;98329.44;;;28.84;58.97
60019;BME280;45870;42.528;26.740;2023-08-06T03:31:09;98320.25;;;29.48;56.84
60019;BME280;45870;42.528;26.740;2023-08-06T03:33:35;98324.00;;;30.51;53.90
60019;BME280;45870;42.528;26.740;2023-08-06T03:36:01;98294.00;;;29.42;56.17
60019;BME280;45870;42.528;26.740;2023-08-06T03:38:26;98308.78;;;29.71;55.29
60019;BME280;45870;42.528;26.740;2023-08-06T03:40:54;98313.88;;;29.44;56.29
60019;BME280;45870;42.528;26.740;2023-08-06T03:43:23;98313.06;;;29.40;56.32
60019;BME280;45870;42.528;26.740;2023-08-06T03:45:49;98298.91;;;30.34;53.10
60019;BME280;45870;42.528;26.740;2023-08-06T03:48:15;98324.38;;;29.93;54.52
60019;BME280;45870;42.528;26.740;2023-08-06T03:50:40;98269.81;;;29.57;55.15
60019;BME280;45870;42.528;26.740;2023-08-06T03:53:06;98275.13;;;28.90;57.43
60019;BME280;45870;42.528;26.740;2023-08-06T03:55:32;98292.03;;;29.50;55.75
60019;BME280;45870;42.528;26.740;2023-08-06T03:57:57;98327.53;;;29.99;55.44
60019;BME280;45870;42.528;26.740;2023-08-06T04:00:23;98203.84;;;29.33;54.13
60019;BME280;45870;42.528;26.740;2023-08-06T04:02:48;98325.97;;;30.51;54.12
60019;BME280;45870;42.528;26.740;2023-08-06T04:05:16;98336.28;;;29.87;55.95
60019;BME280;45870;42.528;26.740;2023-08-06T04:07:42;98298.81;;;29.63;55.63
60019;BME280;45870;42.528;26.740;2023-08-06T04:10:08;98329.53;;;30.05;54.88
60019;BME280;45870;42.528;26.740;2023-08-06T04:12:34;98297.34;;;30.22;53.76
60019;BME280;45870;42.528;26.740;2023-08-06T04:15:02;98331.06;;;31.09;51.75
60019;BME280;45870;42.528;26.740;2023-08-06T04:17:29;98304.03;;;31.06;51.76
60019;BME280;45870;42.528;26.740;2023-08-06T04:19:55;98329.88;;;31.13;51.58
60019;BME280;45870;42.528;26.740;2023-08-06T04:22:23;98324.66;;;31.23;51.54
60019;BME280;45870;42.528;26.740;2023-08-06T04:24:49;98322.41;;;30.54;53.30
60019;BME280;45870;42.528;26.740;2023-08-06T04:27:18;98321.16;;;29.95;54.67
60019;BME280;45870;42.528;26.740;2023-08-06T04:29:44;98299.09;;;31.42;50.84
60019;BME280;45870;42.528;26.740;2023-08-06T04:32:10;98270.50;;;31.24;50.79
60019;BME280;45870;42.528;26.740;2023-08-06T04:34:36;98306.09;;;30.52;53.13
60019;BME280;45870;42.528;26.740;2023-08-06T04:37:03;98315.16;;;31.09;52.58
60019;BME280;45870;42.528;26.740;2023-08-06T04:39:29;98259.03;;;31.00;51.85
60019;BME280;45870;42.528;26.740;2023-08-06T04:41:56;98265.38;;;31.08;51.63
60019;BME280;45870;42.528;26.740;2023-08-06T04:44:22;98301.94;;;31.28;51.48
60019;BME280;45870;42.528;26.740;2023-08-06T04:46:48;98300.84;;;31.00;52.29
60019;BME280;45870;42.528;26.740;2023-08-06T04:49:14;98300.00;;;31.14;52.33
60019;BME280;45870;42.528;26.740;2023-08-06T04:51:40;98255.00;;;31.12;51.27
60019;BME280;45870;42.528;26.740;2023-08-06T04:54:06;98295.22;;;31.94;49.81
60019;BME280;45870;42.528;26.740;2023-08-06T04:56:31;98304.63;;;31.49;50.72
60019;BME280;45870;42.528;26.740;2023-08-06T04:58:58;98299.16;;;31.28;51.56
60019;BME280;45870;42.528;26.740;2023-08-06T05:01:24;98298.38;;;31.24;51.46
60019;BME280;45870;42.528;26.740;2023-08-06T05:03:50;98300.13;;;31.76;50.08
60019;BME280;45870;42.528;26.740;2023-08-06T05:06:16;98274.63;;;31.70;49.59
60019;BME280;45870;42.528;26.740;2023-08-06T05:08:41;98246.78;;;32.18;48.27
60019;BME280;45870;42.528;26.740;2023-08-06T05:11:07;98302.66;;;31.39;50.05
60019;BME280;45870;42.528;26.740;2023-08-06T05:13:33;98319.16;;;30.87;51.98
60019;BME280;45870;42.528;26.740;2023-08-06T05:15:58;98301.63;;;31.88;48.88
60019;BME280;45870;42.528;26.740;2023-08-06T05:18:24;98315.72;;;32.73;47.32
60019;BME280;45870;42.528;26.740;2023-08-06T05:20:50;98307.19;;;33.25;45.55
60019;BME280;45870;42.528;26.740;2023-08-06T05:23:15;98315.44;;;32.60;46.85
60019;BME280;45870;42.528;26.740;2023-08-06T05:25:42;98332.41;;;33.51;44.46
60019;BME280;45870;42.528;26.740;2023-08-06T05:28:07;98321.88;;;34.20;43.58
60019;BME280;45870;42.528;26.740;2023-08-06T05:30:42;98293.25;;;32.43;46.96
60019;BME280;45870;42.528;26.740;2023-08-06T05:33:07;98318.81;;;32.38;47.67
60019;BME280;45870;42.528;26.740;2023-08-06T05:35:33;98267.63;;;32.03;47.12
60019;BME280;45870;42.528;26.740;2023-08-06T05:37:59;98319.59;;;33.24;45.56
60019;BME280;45870;42.528;26.740;2023-08-06T05:40:24;98190.91;;;32.22;45.48
60019;BME280;45870;42.528;26.740;2023-08-06T05:42:53;98182.03;;;33.59;42.98
60019;BME280;45870;42.528;26.740;2023-08-06T05:45:19;98309.75;;;36.59;38.43
60019;BME280;45870;42.528;26.740;2023-08-06T05:47:44;98308.19;;;35.15;40.35
60019;BME280;45870;42.528;26.740;2023-08-06T05:50:10;98312.78;;;35.44;40.42
60019;BME280;45870;42.528;26.740;2023-08-06T05:52:35;98317.09;;;37.14;36.59
60019;BME280;45870;42.528;26.740;2023-08-06T05:55:01;98271.09;;;40.48;30.67
60019;BME280;45870;42.528;26.740;2023-08-06T05:57:27;98301.53;;;38.65;33.15
60019;BME280;45870;42.528;26.740;2023-08-06T05:59:52;98296.13;;;37.02;36.59
60019;BME280;45870;42.528;26.740;2023-08-06T06:02:18;98274.00;;;35.75;38.39
60019;BME280;45870;42.528;26.740;2023-08-06T06:04:44;98263.19;;;36.26;37.86
60019;BME280;45870;42.528;26.740;2023-08-06T06:07:09;98287.22;;;36.43;37.30
60019;BME280;45870;42.528;26.740;2023-08-06T06:09:35;98272.19;;;37.23;36.00
60019;BME280;45870;42.528;26.740;2023-08-06T06:12:01;98240.72;;;37.28;34.87
60019;BME280;45870;42.528;26.740;2023-08-06T06:14:27;98281.09;;;36.48;36.90
60019;BME280;45870;42.528;26.740;2023-08-06T06:16:52;98286.44;;;38.59;33.25
60019;BME280;45870;42.528;26.740;2023-08-06T06:19:18;98249.25;;;38.51;32.63
60019;BME280;45870;42.528;26.740;2023-08-06T06:21:44;98235.47;;;37.68;34.02
60019;BME280;45870;42.528;26.740;2023-08-06T06:24:09;98291.75;;;37.43;34.79
60019;BME280;45870;42.528;26.740;2023-08-06T06:26:35;98279.09;;;38.95;32.11
60019;BME280;45870;42.528;26.740;2023-08-06T06:29:01;98296.03;;;38.61;32.74
60019;BME280;45870;42.528;26.740;2023-08-06T06:31:27;98293.81;;;38.78;32.40
60019;BME280;45870;42.528;26.740;2023-08-06T06:33:57;98273.28;;;39.95;30.29
60019;BME280;45870;42.528;26.740;2023-08-06T06:36:23;98285.94;;;39.07;32.99
60019;BME280;45870;42.528;26.740;2023-08-06T06:38:51;98244.22;;;40.25;30.26
60019;BME280;45870;42.528;26.740;2023-08-06T06:41:17;98271.06;;;37.08;35.41
60019;BME280;45870;42.528;26.740;2023-08-06T06:43:43;98262.63;;;37.08;34.52
60019;BME280;45870;42.528;26.740;2023-08-06T06:46:08;98224.06;;;38.57;31.97
60019;BME280;45870;42.528;26.740;2023-08-06T06:48:34;98278.44;;;39.13;31.33
60019;BME280;45870;42.528;26.740;2023-08-06T06:51:00;98224.38;;;38.93;32.04
60019;BME280;45870;42.528;26.740;2023-08-06T06:53:25;98240.66;;;39.63;31.36
60019;BME280;45870;42.528;26.740;2023-08-06T06:55:55;98286.88;;;39.78;31.82
60019;BME280;45870;42.528;26.740;2023-08-06T06:58:21;98242.84;;;38.72;31.60
60019;BME280;45870;42.528;26.740;2023-08-06T07:00:47;98278.41;;;39.78;31.22
60019;BME280;45870;42.528;26.740;2023-08-06T07:03:14;98274.19;;;38.87;31.30
60019;BME280;45870;42.528;26.740;2023-08-06T07:05:40;98292.69;;;38.41;30.59
60019;BME280;45870;42.528;26.740;2023-08-06T07:08:06;98288.81;;;40.39;29.67
60019;BME280;45870;42.528;26.740;2023-08-06T07:10:31;98292.34;;;41.95;26.35
60019;BME280;45870;42.528;26.740;2023-08-06T07:12:57;98256.91;;;43.47;25.13
60019;BME280;45870;42.528;26.740;2023-08-06T07:15:23;98287.13;;;39.19;29.54
60019;BME280;45870;42.528;26.740;2023-08-06T07:17:49;98278.88;;;41.71;27.23
60019;BME280;45870;42.528;26.740;2023-08-06T07:20:14;98253.47;;;41.95;25.57
60019;BME280;45870;42.528;26.740;2023-08-06T07:22:40;98244.22;;;41.44;25.86
60019;BME280;45870;42.528;26.740;2023-08-06T07:25:11;98255.38;;;42.69;24.75
60019;BME280;45870;42.528;26.740;2023-08-06T07:27:41;98268.09;;;39.63;28.42
60019;BME280;45870;42.528;26.740;2023-08-06T07:30:07;98250.50;;;41.90;25.65
60019;BME280;45870;42.528;26.740;2023-08-06T07:32:33;98278.03;;;41.47;26.23
60019;BME280;45870;42.528;26.740;2023-08-06T07:34:59;98274.91;;;42.20;25.48
60019;BME280;45870;42.528;26.740;2023-08-06T07:37:27;98239.97;;;41.30;25.33
60019;BME280;45870;42.528;26.740;2023-08-06T07:39:54;98248.84;;;42.54;25.63
60019;BME280;45870;42.528;26.740;2023-08-06T07:42:20;98253.38;;;42.85;24.32
60019;BME280;45870;42.528;26.740;2023-08-06T07:44:57;98259.53;;;42.12;24.32
60019;BME280;45870;42.528;26.740;2023-08-06T07:47:23;98273.50;;;40.77;25.49
60019;BME280;45870;42.528;26.740;2023-08-06T07:49:50;98264.59;;;41.66;25.66
60019;BME280;45870;42.528;26.740;2023-08-06T07:52:15;98258.31;;;39.76;27.15
60019;BME280;45870;42.528;26.740;2023-08-06T07:54:41;98258.25;;;42.22;24.57
60019;BME280;45870;42.528;26.740;2023-08-06T07:57:07;98246.38;;;42.47;24.06
60019;BME280;45870;42.528;26.740;2023-08-06T07:59:32;98255.88;;;43.36;22.30
60019;BME280;45870;42.528;26.740;2023-08-06T08:01:58;98231.50;;;43.29;21.72
60019;BME280;45870;42.528;26.740;2023-08-06T08:04:24;98226.50;;;43.09;22.59
60019;BME280;45870;42.528;26.740;2023-08-06T08:06:50;98261.59;;;43.50;22.20
60019;BME280;45870;42.528;26.740;2023-08-06T08:09:18;98235.97;;;43.94;22.19
60019;BME280;45870;42.528;26.740;2023-08-06T08:11:44;98262.72;;;44.37;21.38
60019;BME280;45870;42.528;26.740;2023-08-06T08:14:10;98211.94;;;42.63;22.61
60019;BME280;45870;42.528;26.740;2023-08-06T08:16:38;98222.50;;;43.30;22.26
60019;BME280;45870;42.528;26.740;2023-08-06T08:19:14;98200.34;;;45.00;21.14
60019;BME280;45870;42.528;26.740;2023-08-06T08:21:40;98233.59;;;47.26;18.29
60019;BME280;45870;42.528;26.740;2023-08-06T08:24:06;98227.28;;;43.39;21.78
60019;BME280;45870;42.528;26.740;2023-08-06T08:26:32;98225.34;;;41.82;23.86
60019;BME280;45870;42.528;26.740;2023-08-06T08:28:58;98214.56;;;42.19;23.21
60019;BME280;45870;42.528;26.740;2023-08-06T08:31:23;98220.50;;;42.93;22.16
60019;BME280;45870;42.528;26.740;2023-08-06T08:33:49;98216.34;;;43.17;21.51
60019;BME280;45870;42.528;26.740;2023-08-06T08:36:14;98205.16;;;42.37;22.79
60019;BME280;45870;42.528;26.740;2023-08-06T08:38:40;98175.03;;;42.25;22.27
60019;BME280;45870;42.528;26.740;2023-08-06T08:41:09;98186.81;;;41.67;22.67
60019;BME280;45870;42.528;26.740;2023-08-06T08:43:36;98155.16;;;40.57;23.69
60019;BME280;45870;42.528;26.740;2023-08-06T08:46:04;98189.25;;;40.72;24.10
60019;BME280;45870;42.528;26.740;2023-08-06T08:48:30;98186.63;;;42.74;23.37
60019;BME280;45870;42.528;26.740;2023-08-06T08:50:56;98176.50;;;43.76;21.58
60019;BME280;45870;42.528;26.740;2023-08-06T08:53:24;98157.03;;;42.04;22.63
60019;BME280;45870;42.528;26.740;2023-08-06T08:55:50;98120.09;;;40.36;25.50
60019;BME280;45870;42.528;26.740;2023-08-06T08:58:16;98167.97;;;41.13;25.41
60019;BME280;45870;42.528;26.740;2023-08-06T09:00:42;98122.31;;;40.60;25.59
60019;BME280;45870;42.528;26.740;2023-08-06T09:03:08;98141.16;;;40.63;25.29
60019;BME280;45870;42.528;26.740;2023-08-06T09:05:35;98149.19;;;41.99;23.89
60019;BME280;45870;42.528;26.740;2023-08-06T09:08:03;98154.81;;;44.34;20.92
60019;BME280;45870;42.528;26.740;2023-08-06T09:10:30;98155.97;;;45.19;20.85
60019;BME280;45870;42.528;26.740;2023-08-06T09:12:57;98148.94;;;46.25;18.63
60019;BME280;45870;42.528;26.740;2023-08-06T09:15:27;98140.81;;;42.96;23.02
60019;BME280;45870;42.528;26.740;2023-08-06T09:17:53;98142.31;;;42.15;23.68
60019;BME280;45870;42.528;26.740;2023-08-06T09:20:19;98171.63;;;40.86;25.52
60019;BME280;45870;42.528;26.740;2023-08-06T09:22:45;98180.47;;;34.90;32.57
60019;BME280;45870;42.528;26.740;2023-08-06T09:25:21;98164.41;;;33.05;34.26
60019;BME280;45870;42.528;26.740;2023-08-06T09:27:48;98096.25;;;31.94;35.22
60019;BME280;45870;42.528;26.740;2023-08-06T09:30:31;98189.88;;;32.80;34.30
60019;BME280;45870;42.528;26.740;2023-08-06T09:33:01;98218.94;;;32.49;34.85
60019;BME280;45870;42.528;26.740;2023-08-06T09:35:31;98203.13;;;31.94;35.21
60019;BME280;45870;42.528;26.740;2023-08-06T09:38:08;98173.28;;;31.88;35.12
60019;BME280;45870;42.528;26.740;2023-08-06T09:40:36;98222.38;;;32.26;35.54
60019;BME280;45870;42.528;26.740;2023-08-06T09:43:02;98195.22;;;34.08;32.88
60019;BME280;45870;42.528;26.740;2023-08-06T09:45:32;98222.47;;;33.81;32.79
60019;BME280;45870;42.528;26.740;2023-08-06T09:47:59;98249.47;;;31.05;38.98
60019;BME280;45870;42.528;26.740;2023-08-06T09:50:30;98252.56;;;31.25;39.62
60019;BME280;45870;42.528;26.740;2023-08-06T09:53:02;98242.06;;;31.50;39.06
60019;BME280;45870;42.528;26.740;2023-08-06T09:55:28;98229.66;;;31.65;38.55
60019;BME280;45870;42.528;26.740;2023-08-06T09:57:54;98210.72;;;31.25;38.04
60019;BME280;45870;42.528;26.740;2023-08-06T10:00:20;98062.81;;;30.00;39.69
60019;BME280;45870;42.528;26.740;2023-08-06T10:02:47;98226.81;;;30.92;38.83
60019;BME280;45870;42.528;26.740;2023-08-06T10:05:14;98238.88;;;29.65;43.30
60019;BME280;45870;42.528;26.740;2023-08-06T10:07:43;98126.78;;;29.12;43.37
60019;BME280;45870;42.528;26.740;2023-08-06T10:10:10;98259.16;;;30.12;43.53
60019;BME280;45870;42.528;26.740;2023-08-06T10:12:41;98201.91;;;29.79;43.40
60019;BME280;45870;42.528;26.740;2023-08-06T10:15:12;98281.94;;;29.10;47.17
60019;BME280;45870;42.528;26.740;2023-08-06T10:17:38;98285.22;;;26.99;53.60
60019;BME280;45870;42.528;26.740;2023-08-06T10:20:06;98274.94;;;26.70;55.09
60019;BME280;45870;42.528;26.740;2023-08-06T10:22:34;98287.72;;;27.08;55.23
60019;BME280;45870;42.528;26.740;2023-08-06T10:25:03;98284.13;;;26.02;59.05
60019;BME280;45870;42.528;26.740;2023-08-06T10:27:40;98293.59;;;25.37;61.91
60019;BME280;45870;42.528;26.740;2023-08-06T10:30:26;98283.81;;;27.46;55.07
60019;BME280;45870;42.528;26.740;2023-08-06T10:32:57;98241.66;;;28.07;52.39
60019;BME280;45870;42.528;26.740;2023-08-06T10:35:41;98250.69;;;28.55;51.87
60019;BME280;45870;42.528;26.740;2023-08-06T10:38:12;98239.69;;;29.80;49.14
60019;BME280;45870;42.528;26.740;2023-08-06T10:40:49;98251.16;;;29.57;48.46
60019;BME280;45870;42.528;26.740;2023-08-06T10:43:29;98238.44;;;28.05;52.53
60019;BME280;45870;42.528;26.740;2023-08-06T10:45:56;98243.06;;;27.46;55.33
60019;BME280;45870;42.528;26.740;2023-08-06T10:51:02;98214.00;;;28.17;53.82
60019;BME280;45870;42.528;26.740;2023-08-06T10:53:29;98206.72;;;28.57;52.58
60019;BME280;45870;42.528;26.740;2023-08-06T10:55:57;98174.47;;;29.35;51.35
60019;BME280;45870;42.528;26.740;2023-08-06T10:58:24;98192.38;;;29.73;51.35
60019;BME280;45870;42.528;26.740;2023-08-06T11:00:50;98169.75;;;29.99;50.36
60019;BME280;45870;42.528;26.740;2023-08-06T11:03:15;98199.91;;;30.47;50.66
60019;BME280;45870;42.528;26.740;2023-08-06T11:05:49;98218.94;;;31.53;48.17
60019;BME280;45870;42.528;26.740;2023-08-06T11:08:29;98217.75;;;31.50;49.16
60019;BME280;45870;42.528;26.740;2023-08-06T11:13:36;98229.31;;;29.81;52.17
60019;BME280;45870;42.528;26.740;2023-08-06T11:16:04;98233.25;;;29.37;54.03
60019;BME280;45870;42.528;26.740;2023-08-06T11:18:31;98245.13;;;31.73;49.40
60019;BME280;45870;42.528;26.740;2023-08-06T11:21:00;98237.75;;;32.00;47.87
60019;BME280;45870;42.528;26.740;2023-08-06T11:23:30;98229.69;;;32.09;45.58
60019;BME280;45870;42.528;26.740;2023-08-06T11:25:59;98239.78;;;31.93;46.05
60019;BME280;45870;42.528;26.740;2023-08-06T11:28:25;98267.59;;;32.92;45.67
60019;BME280;45870;42.528;26.740;2023-08-06T11:30:57;98262.03;;;35.75;38.90
60019;BME280;45870;42.528;26.740;2023-08-06T11:33:26;98262.34;;;35.61;40.98
60019;BME280;45870;42.528;26.740;2023-08-06T11:35:55;98170.78;;;34.13;40.70
60019;BME280;45870;42.528;26.740;2023-08-06T11:38:25;98216.88;;;34.51;41.40
60019;BME280;45870;42.528;26.740;2023-08-06T11:40:51;98234.03;;;34.33;41.40
60019;BME280;45870;42.528;26.740;2023-08-06T11:43:19;98091.94;;;33.44;42.10
60019;BME280;45870;42.528;26.740;2023-08-06T11:45:46;98230.44;;;34.95;40.71
60019;BME280;45870;42.528;26.740;2023-08-06T11:48:12;98237.78;;;34.89;40.62
60019;BME280;45870;42.528;26.740;2023-08-06T11:50:38;98229.91;;;33.91;41.15
60019;BME280;45870;42.528;26.740;2023-08-06T11:53:04;98226.94;;;33.75;41.21
60019;BME280;45870;42.528;26.740;2023-08-06T11:55:30;98232.91;;;32.49;41.87
60019;BME280;45870;42.528;26.740;2023-08-06T11:57:57;98204.38;;;31.86;44.43
60019;BME280;45870;42.528;26.740;2023-08-06T12:00:24;98213.88;;;31.92;42.24
60019;BME280;45870;42.528;26.740;2023-08-06T12:02:50;98254.72;;;33.89;40.40
60019;BME280;45870;42.528;26.740;2023-08-06T12:05:21;98254.47;;;35.16;37.04
60019;BME280;45870;42.528;26.740;2023-08-06T12:10:17;98139.09;;;32.51;41.53
60019;BME280;45870;42.528;26.740;2023-08-06T12:12:45;98253.38;;;31.91;44.71
60019;BME280;45870;42.528;26.740;2023-08-06T12:15:12;98282.78;;;32.91;43.62
60019;BME280;45870;42.528;26.740;2023-08-06T12:17:40;98276.31;;;32.64;42.60
60019;BME280;45870;42.528;26.740;2023-08-06T12:20:07;98274.13;;;32.82;42.53
60019;BME280;45870;42.528;26.740;2023-08-06T12:22:33;98276.59;;;32.73;41.13
60019;BME280;45870;42.528;26.740;2023-08-06T12:25:07;98268.59;;;34.46;39.04
60019;BME280;45870;42.528;26.740;2023-08-06T12:27:37;98272.44;;;33.52;41.14
60019;BME280;45870;42.528;26.740;2023-08-06T12:30:04;98260.63;;;33.41;40.03
60019;BME280;45870;42.528;26.740;2023-08-06T12:32:30;98271.03;;;33.07;40.80
60019;BME280;45870;42.528;26.740;2023-08-06T12:34:55;98202.06;;;33.27;40.43
60019;BME280;45870;42.528;26.740;2023-08-06T12:37:21;98251.69;;;33.80;40.12
60019;BME280;45870;42.528;26.740;2023-08-06T12:39:47;98264.81;;;32.92;41.14
60019;BME280;45870;42.528;26.740;2023-08-06T12:42:13;98233.63;;;33.28;40.41
60019;BME280;45870;42.528;26.740;2023-08-06T12:44:38;98266.09;;;34.29;38.38
60019;BME280;45870;42.528;26.740;2023-08-06T12:47:04;98154.66;;;35.51;35.06
60019;BME280;45870;42.528;26.740;2023-08-06T12:49:30;98267.53;;;34.83;35.82
60019;BME280;45870;42.528;26.740;2023-08-06T12:51:57;98279.53;;;36.31;33.59
60019;BME280;45870;42.528;26.740;2023-08-06T12:54:25;98251.66;;;37.39;30.64
60019;BME280;45870;42.528;26.740;2023-08-06T12:56:51;98272.38;;;38.46;30.71
60019;BME280;45870;42.528;26.740;2023-08-06T12:59:17;98266.03;;;36.10;34.43
60019;BME280;45870;42.528;26.740;2023-08-06T13:01:44;98254.25;;;33.68;37.82
60019;BME280;45870;42.528;26.740;2023-08-06T13:04:10;98261.19;;;32.95;39.38